sensor_id;sensor_type;location;lat;lon;timestamp;P1;durP1;ratioP1;P2;durP2;ratioP2
48327;SDS011;34136;51.022;7.082;2022-11-15T00:00:06;15.27;;;10.45;;
48327;SDS011;34136;51.022;7.082;2022-11-15T00:03:13;10.60;;;8.95;;
48327;SDS011;34136;51.022;7.082;2022-11-15T00:06:22;11.88;;;8.93;;
48327;SDS011;34136;51.022;7.082;2022-11-15T00:09:27;12.60;;;9.20;;
48327;SDS011;34136;51.022;7.082;2022-11-15T00:12:31;14.05;;;9.73;;
48327;SDS011;34136;51.022;7.082;2022-11-15T00:15:36;11.88;;;9.57;;
48327;SDS011;34136;51.022;7.082;2022-11-15T00:18:42;13.13;;;9.77;;
48327;SDS011;34136;51.022;7.082;2022-11-15T00:21:47;14.48;;;8.93;;
48327;SDS011;34136;51.022;7.082;2022-11-15T00:24:52;12.38;;;9.05;;
48327;SDS011;34136;51.022;7.082;2022-11-15T00:27:57;15.23;;;9.30;;
48327;SDS011;34136;51.022;7.082;2022-11-15T00:31:04;13.48;;;9.45;;
48327;SDS011;34136;51.022;7.082;2022-11-15T00:34:10;14.77;;;8.85;;
48327;SDS011;34136;51.022;7.082;2022-11-15T00:37:15;11.00;;;9.07;;
48327;SDS011;34136;51.022;7.082;2022-11-15T00:40:19;11.13;;;8.73;;
48327;SDS011;34136;51.022;7.082;2022-11-15T00:43:24;11.85;;;9.10;;
48327;SDS011;34136;51.022;7.082;2022-11-15T00:46:28;12.27;;;8.68;;
48327;SDS011;34136;51.022;7.082;2022-11-15T00:49:33;10.65;;;8.43;;
48327;SDS011;34136;51.022;7.082;2022-11-15T00:52:38;9.95;;;7.78;;
48327;SDS011;34136;51.022;7.082;2022-11-15T00:55:43;14.27;;;8.80;;
48327;SDS011;34136;51.022;7.082;2022-11-15T00:58:47;15.13;;;8.35;;
48327;SDS011;34136;51.022;7.082;2022-11-15T01:01:51;10.02;;;8.20;;
48327;SDS011;34136;51.022;7.082;2022-11-15T01:04:56;10.15;;;8.50;;
48327;SDS011;34136;51.022;7.082;2022-11-15T01:08:01;9.50;;;8.38;;
48327;SDS011;34136;51.022;7.082;2022-11-15T01:11:08;10.65;;;7.80;;
48327;SDS011;34136;51.022;7.082;2022-11-15T01:14:14;13.40;;;8.73;;
48327;SDS011;34136;51.022;7.082;2022-11-15T01:17:19;13.07;;;8.75;;
48327;SDS011;34136;51.022;7.082;2022-11-15T01:20:24;10.60;;;9.20;;
48327;SDS011;34136;51.022;7.082;2022-11-15T01:23:29;8.95;;;7.93;;
48327;SDS011;34136;51.022;7.082;2022-11-15T01:26:34;11.93;;;8.60;;
48327;SDS011;34136;51.022;7.082;2022-11-15T01:29:39;13.38;;;8.18;;
48327;SDS011;34136;51.022;7.082;2022-11-15T01:32:43;12.63;;;8.57;;
48327;SDS011;34136;51.022;7.082;2022-11-15T01:35:48;13.43;;;8.30;;
48327;SDS011;34136;51.022;7.082;2022-11-15T01:38:53;11.10;;;8.07;;
48327;SDS011;34136;51.022;7.082;2022-11-15T01:41:59;12.93;;;8.63;;
48327;SDS011;34136;51.022;7.082;2022-11-15T01:45:04;15.32;;;8.38;;
48327;SDS011;34136;51.022;7.082;2022-11-15T01:48:10;13.25;;;8.55;;
48327;SDS011;34136;51.022;7.082;2022-11-15T01:51:16;12.35;;;8.68;;
48327;SDS011;34136;51.022;7.082;2022-11-15T01:54:23;11.10;;;8.60;;
48327;SDS011;34136;51.022;7.082;2022-11-15T01:57:29;13.15;;;8.38;;
48327;SDS011;34136;51.022;7.082;2022-11-15T02:00:34;11.13;;;8.80;;
48327;SDS011;34136;51.022;7.082;2022-11-15T02:03:52;13.95;;;8.35;;
48327;SDS011;34136;51.022;7.082;2022-11-15T02:07:03;10.77;;;8.55;;
48327;SDS011;34136;51.022;7.082;2022-11-15T02:10:11;15.73;;;8.93;;
48327;SDS011;34136;51.022;7.082;2022-11-15T02:13:18;13.35;;;8.32;;
48327;SDS011;34136;51.022;7.082;2022-11-15T02:27:51;11.02;;;7.85;;
48327;SDS011;34136;51.022;7.082;2022-11-15T02:30:40;16.08;;;9.07;;
48327;SDS011;34136;51.022;7.082;2022-11-15T02:34:08;9.88;;;7.70;;
48327;SDS011;34136;51.022;7.082;2022-11-15T02:38:12;10.75;;;8.30;;
48327;SDS011;34136;51.022;7.082;2022-11-15T02:41:04;11.73;;;8.40;;
48327;SDS011;34136;51.022;7.082;2022-11-15T02:44:26;10.52;;;7.72;;
48327;SDS011;34136;51.022;7.082;2022-11-15T02:47:45;13.50;;;8.55;;
48327;SDS011;34136;51.022;7.082;2022-11-15T02:50:53;10.40;;;8.25;;
48327;SDS011;34136;51.022;7.082;2022-11-15T02:53:59;9.40;;;7.68;;
48327;SDS011;34136;51.022;7.082;2022-11-15T02:57:04;11.05;;;7.95;;
48327;SDS011;34136;51.022;7.082;2022-11-15T03:00:15;10.60;;;7.47;;
48327;SDS011;34136;51.022;7.082;2022-11-15T03:07:00;10.25;;;7.32;;
48327;SDS011;34136;51.022;7.082;2022-11-15T03:10:25;9.75;;;7.28;;
48327;SDS011;34136;51.022;7.082;2022-11-15T03:17:02;10.15;;;6.88;;
48327;SDS011;34136;51.022;7.082;2022-11-15T03:23:30;8.20;;;6.18;;
48327;SDS011;34136;51.022;7.082;2022-11-15T03:26:37;7.80;;;6.70;;
48327;SDS011;34136;51.022;7.082;2022-11-15T03:29:47;8.95;;;6.53;;
48327;SDS011;34136;51.022;7.082;2022-11-15T03:33:05;9.85;;;6.63;;
48327;SDS011;34136;51.022;7.082;2022-11-15T03:36:12;6.97;;;6.28;;
48327;SDS011;34136;51.022;7.082;2022-11-15T03:39:17;8.35;;;6.50;;
48327;SDS011;34136;51.022;7.082;2022-11-15T03:42:28;6.72;;;6.05;;
48327;SDS011;34136;51.022;7.082;2022-11-15T03:45:44;6.90;;;5.50;;
48327;SDS011;34136;51.022;7.082;2022-11-15T03:48:58;9.73;;;6.50;;
48327;SDS011;34136;51.022;7.082;2022-11-15T03:52:19;9.38;;;6.72;;
48327;SDS011;34136;51.022;7.082;2022-11-15T03:55:26;8.45;;;7.25;;
48327;SDS011;34136;51.022;7.082;2022-11-15T03:58:31;8.48;;;6.80;;
48327;SDS011;34136;51.022;7.082;2022-11-15T04:01:37;7.75;;;6.93;;
48327;SDS011;34136;51.022;7.082;2022-11-15T04:04:42;9.73;;;7.68;;
48327;SDS011;34136;51.022;7.082;2022-11-15T04:07:47;9.57;;;7.60;;
48327;SDS011;34136;51.022;7.082;2022-11-15T04:10:52;9.65;;;7.85;;
48327;SDS011;34136;51.022;7.082;2022-11-15T04:13:57;8.43;;;7.63;;
48327;SDS011;34136;51.022;7.082;2022-11-15T04:17:03;8.57;;;7.75;;
48327;SDS011;34136;51.022;7.082;2022-11-15T04:20:09;8.70;;;7.70;;
48327;SDS011;34136;51.022;7.082;2022-11-15T04:23:19;10.88;;;8.70;;
48327;SDS011;34136;51.022;7.082;2022-11-15T04:26:26;10.60;;;8.10;;
48327;SDS011;34136;51.022;7.082;2022-11-15T04:29:30;8.70;;;7.85;;
48327;SDS011;34136;51.022;7.082;2022-11-15T04:32:36;10.20;;;7.85;;
48327;SDS011;34136;51.022;7.082;2022-11-15T04:35:41;9.35;;;8.30;;
48327;SDS011;34136;51.022;7.082;2022-11-15T04:38:47;8.85;;;7.95;;
48327;SDS011;34136;51.022;7.082;2022-11-15T04:41:51;8.27;;;7.32;;
48327;SDS011;34136;51.022;7.082;2022-11-15T04:44:56;9.00;;;8.05;;
48327;SDS011;34136;51.022;7.082;2022-11-15T04:48:01;9.15;;;7.82;;
48327;SDS011;34136;51.022;7.082;2022-11-15T04:51:06;9.45;;;8.30;;
48327;SDS011;34136;51.022;7.082;2022-11-15T07:03:45;5.10;;;3.92;;
48327;SDS011;34136;51.022;7.082;2022-11-15T07:06:50;5.47;;;3.85;;
48327;SDS011;34136;51.022;7.082;2022-11-15T07:09:54;4.05;;;3.25;;
48327;SDS011;34136;51.022;7.082;2022-11-15T07:13:00;4.88;;;3.60;;
48327;SDS011;34136;51.022;7.082;2022-11-15T07:16:05;5.13;;;3.47;;
48327;SDS011;34136;51.022;7.082;2022-11-15T07:19:12;4.85;;;2.85;;
48327;SDS011;34136;51.022;7.082;2022-11-15T07:22:17;4.15;;;2.92;;
48327;SDS011;34136;51.022;7.082;2022-11-15T07:25:22;4.22;;;3.08;;
48327;SDS011;34136;51.022;7.082;2022-11-15T07:28:27;4.22;;;3.20;;
48327;SDS011;34136;51.022;7.082;2022-11-15T07:31:32;4.30;;;3.03;;
48327;SDS011;34136;51.022;7.082;2022-11-15T07:34:37;5.10;;;3.05;;
48327;SDS011;34136;51.022;7.082;2022-11-15T07:37:41;5.38;;;3.60;;
48327;SDS011;34136;51.022;7.082;2022-11-15T07:40:46;3.70;;;2.97;;
48327;SDS011;34136;51.022;7.082;2022-11-15T07:43:59;5.32;;;2.92;;
48327;SDS011;34136;51.022;7.082;2022-11-15T07:47:04;5.30;;;2.88;;
48327;SDS011;34136;51.022;7.082;2022-11-15T07:50:09;4.05;;;2.85;;
48327;SDS011;34136;51.022;7.082;2022-11-15T07:53:14;5.65;;;2.88;;
48327;SDS011;34136;51.022;7.082;2022-11-15T07:56:19;3.63;;;2.88;;
48327;SDS011;34136;51.022;7.082;2022-11-15T07:59:24;4.07;;;3.08;;
48327;SDS011;34136;51.022;7.082;2022-11-15T08:02:29;3.70;;;2.75;;
48327;SDS011;34136;51.022;7.082;2022-11-15T08:05:34;4.43;;;2.55;;
48327;SDS011;34136;51.022;7.082;2022-11-15T08:08:40;4.25;;;2.58;;
48327;SDS011;34136;51.022;7.082;2022-11-15T08:11:44;4.97;;;2.45;;
48327;SDS011;34136;51.022;7.082;2022-11-15T08:14:49;4.85;;;2.13;;
48327;SDS011;34136;51.022;7.082;2022-11-15T08:17:54;5.95;;;2.33;;
48327;SDS011;34136;51.022;7.082;2022-11-15T08:21:00;4.18;;;2.63;;
48327;SDS011;34136;51.022;7.082;2022-11-15T08:24:05;5.32;;;2.17;;
48327;SDS011;34136;51.022;7.082;2022-11-15T08:27:12;3.90;;;2.28;;
48327;SDS011;34136;51.022;7.082;2022-11-15T08:30:17;4.43;;;2.28;;
48327;SDS011;34136;51.022;7.082;2022-11-15T08:33:22;3.53;;;2.13;;
48327;SDS011;34136;51.022;7.082;2022-11-15T08:36:27;3.60;;;2.45;;
48327;SDS011;34136;51.022;7.082;2022-11-15T08:39:32;5.20;;;2.45;;
48327;SDS011;34136;51.022;7.082;2022-11-15T08:42:36;2.95;;;2.30;;
48327;SDS011;34136;51.022;7.082;2022-11-15T08:45:42;4.28;;;2.28;;
48327;SDS011;34136;51.022;7.082;2022-11-15T08:48:47;3.10;;;1.83;;
48327;SDS011;34136;51.022;7.082;2022-11-15T08:51:52;3.40;;;1.95;;
48327;SDS011;34136;51.022;7.082;2022-11-15T08:54:57;3.65;;;1.75;;
48327;SDS011;34136;51.022;7.082;2022-11-15T08:58:02;2.92;;;1.42;;
48327;SDS011;34136;51.022;7.082;2022-11-15T09:01:14;3.28;;;1.60;;
48327;SDS011;34136;51.022;7.082;2022-11-15T09:04:20;2.28;;;1.70;;
48327;SDS011;34136;51.022;7.082;2022-11-15T09:07:25;2.65;;;1.60;;
48327;SDS011;34136;51.022;7.082;2022-11-15T09:10:29;4.00;;;2.22;;
48327;SDS011;34136;51.022;7.082;2022-11-15T09:13:34;3.63;;;2.00;;
48327;SDS011;34136;51.022;7.082;2022-11-15T09:16:39;2.58;;;1.92;;
48327;SDS011;34136;51.022;7.082;2022-11-15T09:19:44;4.10;;;1.95;;
48327;SDS011;34136;51.022;7.082;2022-11-15T09:22:50;4.38;;;1.83;;
48327;SDS011;34136;51.022;7.082;2022-11-15T09:25:58;4.85;;;1.80;;
48327;SDS011;34136;51.022;7.082;2022-11-15T09:29:04;3.25;;;1.60;;
48327;SDS011;34136;51.022;7.082;2022-11-15T09:32:08;2.53;;;1.67;;
48327;SDS011;34136;51.022;7.082;2022-11-15T09:35:13;3.35;;;1.77;;
48327;SDS011;34136;51.022;7.082;2022-11-15T09:38:18;5.07;;;1.98;;
48327;SDS011;34136;51.022;7.082;2022-11-15T09:45:04;3.55;;;1.63;;
48327;SDS011;34136;51.022;7.082;2022-11-15T09:51:51;3.15;;;1.27;;
48327;SDS011;34136;51.022;7.082;2022-11-15T09:54:40;2.67;;;1.33;;
48327;SDS011;34136;51.022;7.082;2022-11-15T09:57:49;4.88;;;1.40;;
48327;SDS011;34136;51.022;7.082;2022-11-15T10:00:47;2.78;;;1.42;;
48327;SDS011;34136;51.022;7.082;2022-11-15T10:03:36;5.18;;;1.38;;
48327;SDS011;34136;51.022;7.082;2022-11-15T10:06:25;2.50;;;1.10;;
48327;SDS011;34136;51.022;7.082;2022-11-15T10:09:14;2.28;;;1.17;;
48327;SDS011;34136;51.022;7.082;2022-11-15T10:12:06;4.53;;;1.55;;
48327;SDS011;34136;51.022;7.082;2022-11-15T10:15:02;4.07;;;1.10;;
48327;SDS011;34136;51.022;7.082;2022-11-15T10:20:55;3.35;;;1.17;;
48327;SDS011;34136;51.022;7.082;2022-11-15T10:23:44;2.78;;;1.08;;
48327;SDS011;34136;51.022;7.082;2022-11-15T10:26:31;2.95;;;0.88;;
48327;SDS011;34136;51.022;7.082;2022-11-15T10:29:21;4.13;;;1.30;;
48327;SDS011;34136;51.022;7.082;2022-11-15T10:32:10;3.83;;;1.20;;
48327;SDS011;34136;51.022;7.082;2022-11-15T10:34:57;3.17;;;1.38;;
48327;SDS011;34136;51.022;7.082;2022-11-15T10:37:43;3.20;;;1.20;;
48327;SDS011;34136;51.022;7.082;2022-11-15T10:40:29;2.53;;;1.02;;
48327;SDS011;34136;51.022;7.082;2022-11-15T10:43:16;4.90;;;1.15;;
48327;SDS011;34136;51.022;7.082;2022-11-15T10:46:16;5.43;;;1.30;;
48327;SDS011;34136;51.022;7.082;2022-11-15T10:49:16;5.35;;;1.30;;
48327;SDS011;34136;51.022;7.082;2022-11-15T10:52:15;3.53;;;1.17;;
48327;SDS011;34136;51.022;7.082;2022-11-15T10:55:24;4.95;;;1.48;;
48327;SDS011;34136;51.022;7.082;2022-11-15T10:58:20;3.67;;;1.15;;
48327;SDS011;34136;51.022;7.082;2022-11-15T11:01:28;2.10;;;0.70;;
48327;SDS011;34136;51.022;7.082;2022-11-15T11:04:15;3.45;;;0.65;;
48327;SDS011;34136;51.022;7.082;2022-11-15T11:07:01;5.55;;;1.10;;
48327;SDS011;34136;51.022;7.082;2022-11-15T11:09:48;4.75;;;1.20;;
48327;SDS011;34136;51.022;7.082;2022-11-15T13:18:59;3.83;;;1.30;;
48327;SDS011;34136;51.022;7.082;2022-11-15T13:21:48;4.32;;;1.30;;
48327;SDS011;34136;51.022;7.082;2022-11-15T13:24:37;5.15;;;1.50;;
48327;SDS011;34136;51.022;7.082;2022-11-15T13:27:24;4.65;;;1.48;;
48327;SDS011;34136;51.022;7.082;2022-11-15T13:30:20;2.20;;;1.15;;
48327;SDS011;34136;51.022;7.082;2022-11-15T13:36:08;3.35;;;1.60;;
48327;SDS011;34136;51.022;7.082;2022-11-15T13:39:32;6.45;;;1.90;;
48327;SDS011;34136;51.022;7.082;2022-11-15T13:42:20;4.50;;;2.03;;
48327;SDS011;34136;51.022;7.082;2022-11-15T13:45:11;6.15;;;1.73;;
48327;SDS011;34136;51.022;7.082;2022-11-15T13:48:02;4.72;;;2.08;;
48327;SDS011;34136;51.022;7.082;2022-11-15T13:50:49;4.70;;;2.55;;
48327;SDS011;34136;51.022;7.082;2022-11-15T13:53:36;3.55;;;2.10;;
48327;SDS011;34136;51.022;7.082;2022-11-15T13:56:25;3.40;;;2.00;;
48327;SDS011;34136;51.022;7.082;2022-11-15T14:02:17;3.85;;;1.77;;
48327;SDS011;34136;51.022;7.082;2022-11-15T14:05:29;3.20;;;1.80;;
48327;SDS011;34136;51.022;7.082;2022-11-15T14:11:08;3.38;;;1.90;;
48327;SDS011;34136;51.022;7.082;2022-11-15T14:14:11;4.40;;;2.17;;
48327;SDS011;34136;51.022;7.082;2022-11-15T14:16:59;4.20;;;1.80;;
48327;SDS011;34136;51.022;7.082;2022-11-15T14:19:46;2.65;;;1.60;;
48327;SDS011;34136;51.022;7.082;2022-11-15T14:22:32;4.03;;;1.92;;
48327;SDS011;34136;51.022;7.082;2022-11-15T14:25:37;4.22;;;2.00;;
